createdAt,value
2018-02-20T00:00:54.541Z,32.47
2018-02-20T00:03:22.217Z,31.17
2018-02-20T00:05:49.641Z,34.78
2018-02-20T00:08:17.064Z,33.17
2018-02-20T00:10:44.490Z,34.35
2018-02-20T00:13:11.923Z,34.75
2018-02-20T00:15:39.355Z,33.85
2018-02-20T00:18:06.778Z,34.47
2018-02-20T00:20:34.199Z,36.42
2018-02-20T00:23:04.503Z,34.97
2018-02-20T00:25:31.926Z,31.20
2018-02-20T00:27:59.353Z,36.95
2018-02-20T00:30:26.776Z,33.83
2018-02-20T00:32:54.198Z,34.65
2018-02-20T00:35:21.613Z,35.55
2018-02-20T00:37:49.041Z,35.40
2018-02-20T00:40:16.470Z,36.40
2018-02-20T00:42:43.897Z,33.95
2018-02-20T00:45:11.322Z,34.45
2018-02-20T00:47:38.766Z,33.05
2018-02-20T00:50:06.194Z,34.42
2018-02-20T00:52:33.644Z,32.92
2018-02-20T00:55:01.070Z,32.72
2018-02-20T00:57:28.506Z,35.40
2018-02-20T00:59:55.945Z,35.40
2018-02-20T01:02:23.369Z,32.95
2018-02-20T01:04:50.826Z,35.42
2018-02-20T01:07:18.250Z,34.83
2018-02-20T01:09:45.678Z,33.25
2018-02-20T01:12:13.102Z,32.15
2018-02-20T01:14:40.536Z,33.28
2018-02-20T01:17:07.950Z,33.78
2018-02-20T01:19:35.369Z,34.00
2018-02-20T01:22:02.821Z,35.67
2018-02-20T01:24:30.246Z,33.25
2018-02-20T01:26:57.681Z,34.58
2018-02-20T01:29:25.122Z,35.58
2018-02-20T01:31:52.554Z,33.63
2018-02-20T01:34:19.976Z,34.78
2018-02-20T01:36:47.398Z,32.65
2018-02-20T01:39:14.838Z,31.67
2018-02-20T01:41:42.275Z,31.85
2018-02-20T01:44:09.691Z,34.10
2018-02-20T01:46:37.110Z,34.25
2018-02-20T01:49:04.534Z,33.85
2018-02-20T01:51:31.951Z,31.48
2018-02-20T01:53:59.378Z,33.53
2018-02-20T01:56:26.804Z,33.22
2018-02-20T01:58:54.230Z,32.88
2018-02-20T02:01:21.651Z,33.50
2018-02-20T02:03:49.074Z,33.88
2018-02-20T02:06:16.506Z,32.47
2018-02-20T02:08:43.926Z,34.10
2018-02-20T02:11:11.354Z,33.50
2018-02-20T02:13:38.795Z,32.50
2018-02-20T02:16:06.219Z,31.67
2018-02-20T02:18:34.001Z,34.83
2018-02-20T02:21:01.425Z,34.75
2018-02-20T02:23:28.833Z,36.00
2018-02-20T02:25:56.256Z,34.08
2018-02-20T02:28:23.675Z,33.25
2018-02-20T02:30:51.098Z,36.90
2018-02-20T02:33:18.522Z,33.30
2018-02-20T02:35:45.953Z,35.15
2018-02-20T02:38:13.405Z,36.08
2018-02-20T02:40:40.821Z,32.97
2018-02-20T02:43:08.250Z,35.83
2018-02-20T02:45:35.655Z,35.22
2018-02-20T02:48:03.097Z,34.25
2018-02-20T02:50:30.517Z,35.72
2018-02-20T02:52:57.942Z,34.22
2018-02-20T02:55:25.358Z,37.70
2018-02-20T02:57:52.783Z,35.13
2018-02-20T03:00:20.211Z,35.75
2018-02-20T03:02:47.623Z,35.22
2018-02-20T03:05:15.050Z,36.05
2018-02-20T03:07:42.457Z,36.30
2018-02-20T03:10:09.882Z,35.17
2018-02-20T03:12:37.306Z,39.00
2018-02-20T03:15:04.725Z,36.05
2018-02-20T03:17:32.142Z,36.55
2018-02-20T03:19:59.554Z,40.03
2018-02-20T03:22:26.986Z,40.80
2018-02-20T03:24:54.413Z,40.75
2018-02-20T03:27:21.826Z,39.38
2018-02-20T03:29:49.243Z,40.88
2018-02-20T03:32:16.670Z,41.53
2018-02-20T03:34:44.089Z,42.17
2018-02-20T03:37:11.513Z,41.35
2018-02-20T03:39:38.930Z,43.30
2018-02-20T03:42:06.345Z,41.92
2018-02-20T03:44:33.762Z,40.03
2018-02-20T03:47:01.185Z,39.90
2018-02-20T03:49:28.605Z,39.67
2018-02-20T03:51:56.029Z,37.50
2018-02-20T03:54:23.446Z,39.42
2018-02-20T03:56:50.870Z,39.53
2018-02-20T03:59:18.294Z,37.42
2018-02-20T04:01:45.707Z,37.55
2018-02-20T04:04:13.135Z,34.47
2018-02-20T04:06:40.565Z,34.28
2018-02-20T04:09:07.982Z,36.45
2018-02-20T04:11:35.434Z,36.42
2018-02-20T04:14:02.846Z,38.72
2018-02-20T04:16:30.297Z,37.53
2018-02-20T04:18:57.715Z,39.17
2018-02-20T04:21:25.141Z,37.90
2018-02-20T04:23:52.570Z,36.80
2018-02-20T04:26:19.994Z,36.67
2018-02-20T04:28:47.439Z,35.58
2018-02-20T04:31:14.847Z,35.72
2018-02-20T04:33:42.261Z,36.35
2018-02-20T04:36:09.683Z,36.67
2018-02-20T04:38:37.103Z,35.88
2018-02-20T04:41:04.536Z,35.45
2018-02-20T04:43:31.968Z,35.92
2018-02-20T04:45:59.398Z,38.75
2018-02-20T04:48:27.742Z,37.65
2018-02-20T04:50:55.170Z,32.55
2018-02-20T04:53:22.585Z,34.70
2018-02-20T04:55:50.013Z,35.50
2018-02-20T04:58:17.425Z,34.25
2018-02-20T05:00:44.837Z,36.65
2018-02-20T05:03:12.272Z,34.20
2018-02-20T05:05:39.685Z,34.47
2018-02-20T05:08:07.109Z,32.38
2018-02-20T05:10:34.526Z,33.30
2018-02-20T05:13:01.941Z,33.35
2018-02-20T05:15:29.366Z,33.80
2018-02-20T05:17:56.791Z,34.53
2018-02-20T05:20:24.214Z,33.22
2018-02-20T05:22:51.631Z,34.92
2018-02-20T05:25:19.034Z,33.35
2018-02-20T05:27:46.465Z,32.63
2018-02-20T05:30:13.879Z,33.60
2018-02-20T05:32:41.298Z,32.45
2018-02-20T05:35:08.716Z,32.53
2018-02-20T05:37:36.146Z,33.45
2018-02-20T05:40:03.580Z,35.10
2018-02-20T05:42:31.003Z,33.75
2018-02-20T05:44:58.433Z,33.97
2018-02-20T05:47:25.877Z,32.38
2018-02-20T05:49:53.334Z,33.22
2018-02-20T05:52:20.748Z,34.00
2018-02-20T05:54:48.175Z,31.52
2018-02-20T05:57:15.602Z,33.58
2018-02-20T05:59:43.018Z,32.13
2018-02-20T06:02:10.449Z,32.05
2018-02-20T06:04:37.880Z,32.45
2018-02-20T06:07:05.301Z,32.13
2018-02-20T06:09:32.723Z,32.10
2018-02-20T06:12:00.151Z,33.80
2018-02-20T06:14:27.561Z,35.33
2018-02-20T06:16:54.998Z,32.80
2018-02-20T06:19:22.418Z,34.50
2018-02-20T06:21:49.835Z,35.95
2018-02-20T06:24:17.259Z,37.55
2018-02-20T06:26:44.690Z,35.22
2018-02-20T06:29:12.122Z,33.63
2018-02-20T06:31:39.550Z,32.85
2018-02-20T06:34:06.996Z,32.00
2018-02-20T06:36:34.411Z,32.40
2018-02-20T06:39:01.834Z,34.38
2018-02-20T06:41:29.258Z,32.88
2018-02-20T06:43:56.674Z,34.70
2018-02-20T06:46:24.103Z,35.13
2018-02-20T06:48:51.526Z,33.05
2018-02-20T06:51:18.962Z,35.28
2018-02-20T06:53:46.390Z,34.75
2018-02-20T06:56:13.814Z,37.45
2018-02-20T06:58:41.243Z,39.63
2018-02-20T07:01:08.668Z,38.60
2018-02-20T07:03:36.102Z,35.72
2018-02-20T07:06:03.527Z,37.03
2018-02-20T07:08:30.953Z,34.58
2018-02-20T07:10:58.369Z,35.85
2018-02-20T07:13:25.914Z,34.35
2018-02-20T07:15:53.334Z,34.75
2018-02-20T07:18:20.782Z,35.58
2018-02-20T07:20:48.542Z,40.17
2018-02-20T07:23:15.970Z,35.15
2018-02-20T07:25:43.393Z,34.42
2018-02-20T07:28:10.822Z,34.60
2018-02-20T07:30:38.239Z,34.75
2018-02-20T07:33:05.662Z,34.90
2018-02-20T07:35:33.090Z,37.55
2018-02-20T07:38:00.523Z,34.80
2018-02-20T07:40:27.942Z,37.13
2018-02-20T07:42:55.375Z,37.03
2018-02-20T07:45:22.806Z,37.17
2018-02-20T07:47:50.238Z,36.90
2018-02-20T07:50:17.655Z,35.65
2018-02-20T07:52:45.072Z,35.75
2018-02-20T07:55:12.503Z,36.53
2018-02-20T07:57:39.919Z,38.15
2018-02-20T08:00:07.347Z,35.60
2018-02-20T08:02:34.767Z,37.13
2018-02-20T08:05:02.195Z,35.70
2018-02-20T08:07:29.618Z,36.70
2018-02-20T08:09:57.033Z,37.38
2018-02-20T08:12:24.461Z,37.17
2018-02-20T08:14:51.878Z,37.85
2018-02-20T08:17:19.302Z,37.88
2018-02-20T08:19:46.730Z,38.55
2018-02-20T08:22:14.151Z,39.30
2018-02-20T08:24:41.574Z,39.20
2018-02-20T08:27:08.994Z,36.65
2018-02-20T08:29:36.418Z,35.78
2018-02-20T08:32:03.841Z,36.97
2018-02-20T08:34:31.347Z,35.88
2018-02-20T08:36:58.678Z,36.65
2018-02-20T08:39:26.090Z,36.50
2018-02-20T08:41:53.515Z,37.00
2018-02-20T08:44:20.930Z,37.35
2018-02-20T08:46:48.375Z,38.35
2018-02-20T08:49:15.798Z,37.10
2018-02-20T08:51:43.224Z,38.25
2018-02-20T08:54:10.650Z,40.05
2018-02-20T08:56:38.071Z,38.13
2018-02-20T08:59:05.490Z,36.55
2018-02-20T09:01:32.909Z,36.50
2018-02-20T09:04:00.362Z,35.55
2018-02-20T09:06:27.783Z,35.63
2018-02-20T09:08:55.215Z,36.28
2018-02-20T09:11:22.681Z,34.50
2018-02-20T09:13:50.086Z,33.80
2018-02-20T09:16:17.509Z,34.95
2018-02-20T09:18:44.972Z,35.67
2018-02-20T09:21:12.366Z,34.47
2018-02-20T09:23:39.790Z,33.88
2018-02-20T09:26:07.212Z,32.65
2018-02-20T09:28:34.642Z,33.10
2018-02-20T09:31:02.058Z,33.90
2018-02-20T09:33:29.478Z,33.03
2018-02-20T09:35:56.889Z,31.90
2018-02-20T09:38:24.308Z,33.77
2018-02-20T09:40:51.725Z,32.63
2018-02-20T09:43:19.138Z,30.80
2018-02-20T09:45:46.566Z,31.53
2018-02-20T09:48:13.982Z,36.27
2018-02-20T09:50:41.394Z,32.80
2018-02-20T09:53:08.809Z,33.10
2018-02-20T09:55:36.497Z,33.50
2018-02-20T09:58:03.910Z,32.30
2018-02-20T10:00:31.336Z,32.73
2018-02-20T10:02:58.747Z,34.07
2018-02-20T10:05:26.160Z,32.93
2018-02-20T10:07:53.618Z,32.73
2018-02-20T10:10:21.022Z,34.03
2018-02-20T10:12:48.467Z,33.67
2018-02-20T10:15:15.878Z,34.23
2018-02-20T10:17:43.353Z,34.50
2018-02-20T10:20:10.770Z,34.63
2018-02-20T10:22:38.177Z,35.20
2018-02-20T10:25:05.599Z,35.67
2018-02-20T10:27:33.011Z,35.00
2018-02-20T10:30:00.436Z,33.60
2018-02-20T10:32:27.838Z,31.90
2018-02-20T10:34:55.255Z,33.43
2018-02-20T10:37:22.669Z,33.23
2018-02-20T10:39:50.078Z,35.17
2018-02-20T10:42:17.494Z,33.47
2018-02-20T10:44:44.912Z,35.70
2018-02-20T10:47:12.329Z,35.50
2018-02-20T10:49:39.747Z,36.40
2018-02-20T10:52:07.157Z,37.10
2018-02-20T10:54:34.574Z,36.40
2018-02-20T10:57:01.990Z,34.80
2018-02-20T10:59:29.758Z,35.37
2018-02-20T11:01:57.177Z,34.77
2018-02-20T11:04:24.594Z,33.03
2018-02-20T11:06:52.018Z,33.70
2018-02-20T11:09:19.435Z,35.97
2018-02-20T11:11:46.858Z,32.27
2018-02-20T11:14:14.274Z,35.07
2018-02-20T11:16:41.690Z,36.37
2018-02-20T11:19:09.123Z,34.80
2018-02-20T11:21:36.558Z,38.90
2018-02-20T11:24:05.037Z,37.60
2018-02-20T11:26:32.451Z,38.50
2018-02-20T11:28:59.895Z,35.67
2018-02-20T11:31:27.311Z,35.60
2018-02-20T11:33:54.727Z,39.30
2018-02-20T11:36:22.153Z,35.00
2018-02-20T11:38:49.561Z,34.30
2018-02-20T11:41:16.985Z,35.43
2018-02-20T11:43:44.398Z,34.07
2018-02-20T11:46:11.811Z,34.43
2018-02-20T11:48:39.236Z,34.40
2018-02-20T11:51:06.650Z,33.47
2018-02-20T11:53:34.066Z,31.80
2018-02-20T11:56:01.478Z,30.77
2018-02-20T11:58:28.907Z,31.40
2018-02-20T12:00:56.330Z,34.17
2018-02-20T12:03:23.735Z,36.33
2018-02-20T12:05:51.153Z,33.93
2018-02-20T12:08:18.561Z,34.73
2018-02-20T12:10:45.978Z,33.83
2018-02-20T12:13:13.386Z,34.60
2018-02-20T12:15:40.811Z,36.10
2018-02-20T12:18:08.214Z,37.70
2018-02-20T12:20:35.665Z,37.20
2018-02-20T12:23:03.083Z,37.50
2018-02-20T12:25:30.491Z,37.97
2018-02-20T12:27:57.907Z,37.67
2018-02-20T12:30:25.321Z,39.73
2018-02-20T12:32:52.750Z,37.90
2018-02-20T12:35:20.173Z,39.87
2018-02-20T12:37:47.598Z,36.50
2018-02-20T12:40:15.022Z,35.27
2018-02-20T12:42:43.452Z,35.83
2018-02-20T12:45:10.904Z,36.27
2018-02-20T12:47:38.363Z,36.03
2018-02-20T12:50:05.781Z,32.80
2018-02-20T12:52:33.202Z,33.30
2018-02-20T12:55:00.640Z,33.90
2018-02-20T12:57:28.112Z,36.30
2018-02-20T12:59:55.515Z,38.17
2018-02-20T13:02:22.953Z,41.07
2018-02-20T13:04:50.363Z,39.40
2018-02-20T13:07:17.876Z,40.97
2018-02-20T13:09:45.310Z,40.10
2018-02-20T13:12:12.829Z,40.83
2018-02-20T13:14:40.264Z,41.63
2018-02-20T13:17:07.708Z,39.10
2018-02-20T13:19:35.122Z,41.33
2018-02-20T13:22:02.541Z,41.53
2018-02-20T13:24:30.011Z,41.70
2018-02-20T13:26:57.458Z,43.23
2018-02-20T13:29:28.928Z,40.30
2018-02-20T13:31:56.405Z,42.70
2018-02-20T13:34:23.839Z,42.30
2018-02-20T13:36:51.270Z,43.23
2018-02-20T13:39:18.694Z,42.70
2018-02-20T13:41:46.123Z,42.47
2018-02-20T13:44:13.542Z,45.13
2018-02-20T13:46:40.966Z,41.40
2018-02-20T13:49:08.387Z,43.37
2018-02-20T13:51:35.811Z,42.70
2018-02-20T13:54:03.233Z,43.30
2018-02-20T13:56:30.660Z,43.83
2018-02-20T13:58:58.900Z,42.97
2018-02-20T14:01:26.318Z,43.30
2018-02-20T14:03:53.742Z,43.13
2018-02-20T14:06:21.166Z,43.63
2018-02-20T14:08:48.578Z,43.17
2018-02-20T14:11:16.003Z,45.23
2018-02-20T14:13:43.414Z,43.97
2018-02-20T14:16:10.858Z,42.33
2018-02-20T14:18:38.266Z,43.23
2018-02-20T14:21:05.675Z,43.83
2018-02-20T14:23:33.103Z,44.33
2018-02-20T14:26:00.516Z,45.33
2018-02-20T14:28:27.944Z,41.47
2018-02-20T14:30:55.349Z,40.07
2018-02-20T14:33:22.790Z,37.60
2018-02-20T14:35:50.203Z,40.47
2018-02-20T14:38:17.613Z,37.73
2018-02-20T14:40:45.031Z,37.37
2018-02-20T14:43:12.501Z,37.17
2018-02-20T14:45:39.934Z,35.40
2018-02-20T14:48:07.855Z,35.37
2018-02-20T14:50:35.277Z,32.63
2018-02-20T14:53:02.691Z,26.90
2018-02-20T14:55:30.105Z,26.90
2018-02-20T14:57:57.541Z,23.57
2018-02-20T15:00:24.963Z,26.70
2018-02-20T15:02:52.381Z,25.43
2018-02-20T15:05:19.790Z,23.77
2018-02-20T15:07:47.215Z,22.73
2018-02-20T15:10:14.635Z,21.53
2018-02-20T15:12:42.142Z,22.67
2018-02-20T15:15:09.559Z,22.53
2018-02-20T15:17:36.970Z,22.63
2018-02-20T15:20:04.391Z,22.70
2018-02-20T15:22:31.839Z,24.40
2018-02-20T15:25:00.275Z,24.90
2018-02-20T15:27:27.706Z,24.80
2018-02-20T15:29:55.127Z,25.70
2018-02-20T15:32:22.570Z,26.43
2018-02-20T15:34:49.980Z,26.50
2018-02-20T15:37:17.403Z,25.67
2018-02-20T15:39:44.816Z,25.53
2018-02-20T15:42:12.241Z,24.70
2018-02-20T15:44:39.657Z,24.90
2018-02-20T15:47:07.084Z,25.17
2018-02-20T15:49:34.550Z,25.67
2018-02-20T15:52:01.994Z,24.17
2018-02-20T15:54:29.422Z,23.80
2018-02-20T15:56:56.898Z,23.70
2018-02-20T15:59:24.322Z,22.90
2018-02-20T16:01:51.777Z,23.90
2018-02-20T16:04:19.230Z,26.20
2018-02-20T16:06:46.665Z,27.87
2018-02-20T16:09:14.390Z,27.80
2018-02-20T16:11:41.844Z,26.33
2018-02-20T16:14:09.265Z,28.50
2018-02-20T16:16:36.688Z,29.10
2018-02-20T16:19:04.090Z,28.97
2018-02-20T16:21:31.502Z,30.50
2018-02-20T16:23:58.921Z,29.10
2018-02-20T16:26:26.330Z,28.53
2018-02-20T16:28:53.744Z,29.80
2018-02-20T16:31:21.166Z,30.10
2018-02-20T16:33:48.678Z,32.30
2018-02-20T16:36:16.098Z,31.10
2018-02-20T16:38:43.510Z,29.73
2018-02-20T16:41:10.923Z,32.03
2018-02-20T16:43:38.348Z,31.90
2018-02-20T16:46:05.769Z,30.83
2018-02-20T16:48:33.194Z,33.10
2018-02-20T16:51:00.606Z,33.03
2018-02-20T16:53:28.025Z,32.23
2018-02-20T16:55:55.442Z,33.80
2018-02-20T16:58:22.858Z,32.63
2018-02-20T17:00:50.276Z,34.03
2018-02-20T17:03:17.682Z,34.00
2018-02-20T17:05:45.128Z,37.60
2018-02-20T17:08:12.534Z,37.13
2018-02-20T17:10:39.970Z,38.05
2018-02-20T17:13:07.393Z,36.55
2018-02-20T17:15:34.818Z,38.85
2018-02-20T17:18:02.257Z,39.83
2018-02-20T17:20:29.702Z,40.17
2018-02-20T17:22:57.126Z,41.70
2018-02-20T17:25:24.538Z,40.90
2018-02-20T17:27:52.277Z,41.35
2018-02-20T17:30:19.705Z,40.38
2018-02-20T17:32:47.127Z,41.67
2018-02-20T17:35:14.555Z,42.37
2018-02-20T17:37:41.978Z,43.25
2018-02-20T17:40:09.394Z,43.83
2018-02-20T17:42:36.822Z,42.53
2018-02-20T17:45:04.258Z,43.63
2018-02-20T17:47:31.693Z,42.40
2018-02-20T17:49:59.154Z,46.00
2018-02-20T17:52:26.575Z,43.30
2018-02-20T17:54:53.990Z,41.00
2018-02-20T17:57:21.419Z,44.33
2018-02-20T17:59:48.845Z,42.95
2018-02-20T18:02:16.275Z,42.75
2018-02-20T18:04:43.706Z,42.72
2018-02-20T18:07:11.129Z,43.60
2018-02-20T18:09:38.550Z,43.10
2018-02-20T18:12:05.969Z,47.17
2018-02-20T18:14:33.406Z,44.83
2018-02-20T18:17:00.834Z,43.70
2018-02-20T18:19:28.247Z,43.42
2018-02-20T18:21:55.674Z,44.20
2018-02-20T18:24:23.096Z,42.30
2018-02-20T18:26:50.551Z,41.90
2018-02-20T18:29:17.967Z,43.63
2018-02-20T18:31:45.419Z,40.80
2018-02-20T18:34:12.846Z,42.42
2018-02-20T18:36:40.292Z,42.33
2018-02-20T18:39:07.702Z,43.15
2018-02-20T18:41:35.134Z,38.53
2018-02-20T18:44:02.561Z,41.47
2018-02-20T18:46:30.029Z,42.08
2018-02-20T18:48:57.444Z,42.50
2018-02-20T18:51:24.877Z,39.63
2018-02-20T18:53:52.302Z,40.90
2018-02-20T18:56:19.735Z,39.80
2018-02-20T18:58:47.158Z,40.70
2018-02-20T19:01:15.614Z,42.70
2018-02-20T19:03:43.038Z,41.05
2018-02-20T19:06:10.457Z,39.88
2018-02-20T19:08:37.889Z,39.50
2018-02-20T19:11:05.310Z,42.22
2018-02-20T19:13:32.755Z,42.33
2018-02-20T19:16:00.185Z,44.15
2018-02-20T19:18:27.605Z,43.20
2018-02-20T19:20:55.035Z,42.20
2018-02-20T19:23:22.518Z,40.58
2018-02-20T19:25:49.945Z,42.05
2018-02-20T19:28:17.390Z,42.78
2018-02-20T19:30:44.817Z,40.30
2018-02-20T19:33:12.241Z,42.47
2018-02-20T19:35:39.670Z,40.47
2018-02-20T19:38:07.097Z,42.38
2018-02-20T19:40:34.514Z,42.60
2018-02-20T19:43:01.943Z,43.20
2018-02-20T19:45:29.354Z,41.80
2018-02-20T19:47:56.794Z,42.05
2018-02-20T19:50:24.214Z,42.22
2018-02-20T19:52:51.654Z,45.08
2018-02-20T19:55:19.073Z,41.42
2018-02-20T19:57:46.503Z,41.15
2018-02-20T20:00:13.943Z,41.25
2018-02-20T20:02:41.429Z,44.75
2018-02-20T20:05:08.865Z,42.40
2018-02-20T20:07:36.287Z,43.65
2018-02-20T20:10:03.743Z,44.90
2018-02-20T20:12:31.168Z,44.50
2018-02-20T20:14:58.586Z,43.03
2018-02-20T20:17:26.029Z,44.42
2018-02-20T20:19:53.446Z,42.05
2018-02-20T20:22:20.895Z,43.80
2018-02-20T20:24:48.323Z,44.33
2018-02-20T20:27:15.746Z,43.70
2018-02-20T20:29:43.175Z,42.67
2018-02-20T20:32:10.592Z,44.47
2018-02-20T20:34:38.022Z,43.42
2018-02-20T20:37:05.446Z,45.10
2018-02-20T20:39:32.869Z,44.95
2018-02-20T20:42:00.285Z,46.85
2018-02-20T20:44:27.718Z,44.75
2018-02-20T20:46:55.140Z,44.60
2018-02-20T20:49:22.574Z,45.88
2018-02-20T20:51:49.998Z,43.97
2018-02-20T20:54:17.426Z,46.03
2018-02-20T20:56:45.207Z,46.25
2018-02-20T20:59:12.630Z,42.90
2018-02-20T21:01:40.050Z,43.00
2018-02-20T21:04:07.482Z,44.67
2018-02-20T21:06:34.903Z,46.03
2018-02-20T21:09:02.362Z,45.30
2018-02-20T21:11:29.759Z,44.90
2018-02-20T21:13:57.175Z,45.12
2018-02-20T21:16:24.596Z,47.45
2018-02-20T21:18:52.022Z,46.10
2018-02-20T21:21:19.780Z,45.03
2018-02-20T21:23:47.203Z,46.15
2018-02-20T21:26:14.617Z,46.15
2018-02-20T21:28:42.046Z,47.88
2018-02-20T21:31:09.769Z,46.97
2018-02-20T21:33:37.210Z,45.42
2018-02-20T21:36:04.643Z,45.92
2018-02-20T21:38:32.061Z,48.35
2018-02-20T21:40:59.490Z,45.80
2018-02-20T21:43:26.916Z,48.05
2018-02-20T21:45:54.354Z,49.40
2018-02-20T21:48:21.887Z,48.38
2018-02-20T21:50:49.789Z,46.55
2018-02-20T21:53:17.163Z,48.13
2018-02-20T21:55:44.582Z,46.95
2018-02-20T21:58:12.018Z,46.67
2018-02-20T22:00:39.499Z,46.47
2018-02-20T22:03:06.870Z,49.22
2018-02-20T22:05:34.294Z,50.80
2018-02-20T22:08:01.714Z,46.25
2018-02-20T22:10:29.138Z,46.47
2018-02-20T22:12:56.553Z,50.35
2018-02-20T22:15:23.987Z,48.47
2018-02-20T22:17:51.417Z,49.25
2018-02-20T22:20:18.827Z,48.53
2018-02-20T22:22:46.258Z,47.45
2018-02-20T22:25:13.678Z,52.33
2018-02-20T22:27:41.101Z,48.87
2018-02-20T22:30:08.518Z,50.58
2018-02-20T22:32:35.934Z,50.33
2018-02-20T22:35:03.355Z,49.58
2018-02-20T22:37:30.778Z,49.78
2018-02-20T22:39:58.197Z,51.05
2018-02-20T22:42:25.618Z,48.95
2018-02-20T22:44:53.034Z,50.00
2018-02-20T22:47:20.455Z,51.53
2018-02-20T22:49:47.871Z,48.38
2018-02-20T22:52:15.297Z,49.08
2018-02-20T22:54:42.705Z,50.38
2018-02-20T22:57:10.148Z,50.83
2018-02-20T22:59:37.538Z,52.30
2018-02-20T23:02:04.966Z,48.58
2018-02-20T23:04:32.733Z,51.60
2018-02-20T23:07:00.179Z,48.72
2018-02-20T23:09:27.578Z,48.80
2018-02-20T23:11:55.033Z,52.13
2018-02-20T23:14:22.446Z,49.03
2018-02-20T23:16:49.885Z,50.63
2018-02-20T23:19:17.294Z,48.50
2018-02-20T23:21:44.706Z,48.22
2018-02-20T23:24:12.145Z,49.22
2018-02-20T23:26:39.554Z,48.60
2018-02-20T23:29:06.982Z,49.53
2018-02-20T23:31:34.406Z,51.92
2018-02-20T23:34:01.822Z,50.80
2018-02-20T23:36:29.245Z,52.53
2018-02-20T23:38:56.670Z,50.05
2018-02-20T23:41:24.418Z,49.13
2018-02-20T23:43:51.847Z,49.42
2018-02-20T23:46:19.266Z,50.38
2018-02-20T23:48:46.684Z,50.15
2018-02-20T23:51:19.602Z,51.65
2018-02-20T23:53:47.433Z,49.63
2018-02-20T23:56:14.861Z,49.40
2018-02-20T23:58:42.277Z,49.25
